sensor_id;sensor_type;location;lat;lon;timestamp;temperature;humidity
12386;DHT22;6257;57.634;18.310;2022-12-29T00:01:31;4.50;99.90
12386;DHT22;6257;57.634;18.310;2022-12-29T00:03:59;4.50;99.90
12386;DHT22;6257;57.634;18.310;2022-12-29T00:06:26;4.50;99.90
12386;DHT22;6257;57.634;18.310;2022-12-29T00:08:55;4.60;99.90
12386;DHT22;6257;57.634;18.310;2022-12-29T00:11:24;4.60;99.90
12386;DHT22;6257;57.634;18.310;2022-12-29T00:13:52;4.60;99.90
12386;DHT22;6257;57.634;18.310;2022-12-29T00:16:37;4.60;99.90
12386;DHT22;6257;57.634;18.310;2022-12-29T00:19:05;4.60;99.90
12386;DHT22;6257;57.634;18.310;2022-12-29T00:21:32;4.60;99.90
12386;DHT22;6257;57.634;18.310;2022-12-29T00:24:19;4.60;99.90
12386;DHT22;6257;57.634;18.310;2022-12-29T00:27:11;4.60;99.90
12386;DHT22;6257;57.634;18.310;2022-12-29T00:29:56;4.60;99.90
12386;DHT22;6257;57.634;18.310;2022-12-29T00:32:41;4.70;99.90
12386;DHT22;6257;57.634;18.310;2022-12-29T00:35:27;4.70;99.90
12386;DHT22;6257;57.634;18.310;2022-12-29T00:37:57;4.70;99.90
12386;DHT22;6257;57.634;18.310;2022-12-29T00:40:44;4.70;99.90
12386;DHT22;6257;57.634;18.310;2022-12-29T00:43:28;4.70;99.90
12386;DHT22;6257;57.634;18.310;2022-12-29T00:46:13;4.70;99.90
12386;DHT22;6257;57.634;18.310;2022-12-29T00:48:40;4.70;99.90
12386;DHT22;6257;57.634;18.310;2022-12-29T00:51:24;4.60;99.90
12386;DHT22;6257;57.634;18.310;2022-12-29T00:53:51;4.60;99.90
12386;DHT22;6257;57.634;18.310;2022-12-29T00:56:20;4.60;99.90
12386;DHT22;6257;57.634;18.310;2022-12-29T00:58:47;4.60;99.90
12386;DHT22;6257;57.634;18.310;2022-12-29T01:01:14;4.60;99.90
12386;DHT22;6257;57.634;18.310;2022-12-29T01:03:41;4.50;99.90
12386;DHT22;6257;57.634;18.310;2022-12-29T01:06:09;4.50;99.90
12386;DHT22;6257;57.634;18.310;2022-12-29T01:08:36;4.60;99.90
12386;DHT22;6257;57.634;18.310;2022-12-29T01:11:05;4.60;99.90
12386;DHT22;6257;57.634;18.310;2022-12-29T01:13:33;4.60;99.90
12386;DHT22;6257;57.634;18.310;2022-12-29T01:16:01;4.60;99.90
12386;DHT22;6257;57.634;18.310;2022-12-29T01:18:28;4.70;99.90
12386;DHT22;6257;57.634;18.310;2022-12-29T01:20:59;4.70;99.90
12386;DHT22;6257;57.634;18.310;2022-12-29T01:23:26;4.70;99.90
12386;DHT22;6257;57.634;18.310;2022-12-29T01:25:54;4.70;99.90
12386;DHT22;6257;57.634;18.310;2022-12-29T01:28:21;4.70;99.90
12386;DHT22;6257;57.634;18.310;2022-12-29T01:30:50;4.70;99.90
12386;DHT22;6257;57.634;18.310;2022-12-29T01:33:17;4.70;99.90
12386;DHT22;6257;57.634;18.310;2022-12-29T01:35:44;4.70;99.90
12386;DHT22;6257;57.634;18.310;2022-12-29T01:38:11;4.70;99.90
12386;DHT22;6257;57.634;18.310;2022-12-29T01:40:44;4.70;99.90
12386;DHT22;6257;57.634;18.310;2022-12-29T01:43:13;4.70;99.90
12386;DHT22;6257;57.634;18.310;2022-12-29T01:45:45;4.60;99.90
12386;DHT22;6257;57.634;18.310;2022-12-29T01:48:17;4.60;99.90
12386;DHT22;6257;57.634;18.310;2022-12-29T01:50:49;4.60;99.90
12386;DHT22;6257;57.634;18.310;2022-12-29T01:53:19;4.60;99.90
12386;DHT22;6257;57.634;18.310;2022-12-29T01:55:50;4.50;99.90
12386;DHT22;6257;57.634;18.310;2022-12-29T01:58:20;4.50;99.90
12386;DHT22;6257;57.634;18.310;2022-12-29T02:00:49;4.50;99.90
12386;DHT22;6257;57.634;18.310;2022-12-29T02:03:19;4.40;99.90
12386;DHT22;6257;57.634;18.310;2022-12-29T02:05:52;4.40;99.90
12386;DHT22;6257;57.634;18.310;2022-12-29T02:08:22;4.40;99.90
12386;DHT22;6257;57.634;18.310;2022-12-29T02:10:51;4.40;99.90
12386;DHT22;6257;57.634;18.310;2022-12-29T02:13:18;4.30;99.90
12386;DHT22;6257;57.634;18.310;2022-12-29T02:15:54;4.30;99.90
12386;DHT22;6257;57.634;18.310;2022-12-29T02:18:38;4.30;99.90
12386;DHT22;6257;57.634;18.310;2022-12-29T02:24:51;4.20;99.90
12386;DHT22;6257;57.634;18.310;2022-12-29T02:27:43;4.20;99.90
12386;DHT22;6257;57.634;18.310;2022-12-29T02:33:18;4.10;99.90
12386;DHT22;6257;57.634;18.310;2022-12-29T02:35:54;4.10;99.90
12386;DHT22;6257;57.634;18.310;2022-12-29T02:38:37;4.10;99.90
12386;DHT22;6257;57.634;18.310;2022-12-29T02:41:14;4.10;99.90
12386;DHT22;6257;57.634;18.310;2022-12-29T02:43:49;4.20;99.90
12386;DHT22;6257;57.634;18.310;2022-12-29T02:46:20;4.20;99.90
12386;DHT22;6257;57.634;18.310;2022-12-29T02:48:55;4.20;99.90
12386;DHT22;6257;57.634;18.310;2022-12-29T02:51:27;4.20;99.90
12386;DHT22;6257;57.634;18.310;2022-12-29T02:53:58;4.20;99.90
12386;DHT22;6257;57.634;18.310;2022-12-29T02:56:43;4.20;99.90
12386;DHT22;6257;57.634;18.310;2022-12-29T02:59:10;4.20;99.90
12386;DHT22;6257;57.634;18.310;2022-12-29T03:01:50;4.20;99.90
12386;DHT22;6257;57.634;18.310;2022-12-29T03:04:43;4.30;99.90
12386;DHT22;6257;57.634;18.310;2022-12-29T03:07:16;4.20;99.90
12386;DHT22;6257;57.634;18.310;2022-12-29T03:09:52;4.30;99.90
12386;DHT22;6257;57.634;18.310;2022-12-29T03:12:27;4.30;99.90
12386;DHT22;6257;57.634;18.310;2022-12-29T03:15:18;4.30;99.90
12386;DHT22;6257;57.634;18.310;2022-12-29T03:18:06;4.30;99.90
12386;DHT22;6257;57.634;18.310;2022-12-29T03:20:41;4.30;99.90
12386;DHT22;6257;57.634;18.310;2022-12-29T03:23:12;4.30;99.90
12386;DHT22;6257;57.634;18.310;2022-12-29T03:25:43;4.30;99.90
12386;DHT22;6257;57.634;18.310;2022-12-29T03:28:13;4.30;99.90
12386;DHT22;6257;57.634;18.310;2022-12-29T03:30:43;4.30;99.90
12386;DHT22;6257;57.634;18.310;2022-12-29T03:33:14;4.40;99.90
12386;DHT22;6257;57.634;18.310;2022-12-29T03:35:46;4.40;99.90
12386;DHT22;6257;57.634;18.310;2022-12-29T03:38:18;4.40;99.90
12386;DHT22;6257;57.634;18.310;2022-12-29T03:40:49;4.40;99.90
12386;DHT22;6257;57.634;18.310;2022-12-29T03:43:18;4.40;99.90
12386;DHT22;6257;57.634;18.310;2022-12-29T03:45:45;4.40;99.90
12386;DHT22;6257;57.634;18.310;2022-12-29T03:48:12;4.40;99.90
12386;DHT22;6257;57.634;18.310;2022-12-29T03:50:40;4.40;99.90
12386;DHT22;6257;57.634;18.310;2022-12-29T03:53:08;4.30;99.90
12386;DHT22;6257;57.634;18.310;2022-12-29T03:55:35;4.30;99.90
12386;DHT22;6257;57.634;18.310;2022-12-29T03:58:02;4.30;99.90
12386;DHT22;6257;57.634;18.310;2022-12-29T04:00:29;4.30;99.90
12386;DHT22;6257;57.634;18.310;2022-12-29T04:02:56;4.30;99.90
12386;DHT22;6257;57.634;18.310;2022-12-29T04:05:23;4.30;99.90
12386;DHT22;6257;57.634;18.310;2022-12-29T04:07:51;4.30;99.90
12386;DHT22;6257;57.634;18.310;2022-12-29T04:10:19;4.30;99.90
12386;DHT22;6257;57.634;18.310;2022-12-29T04:12:46;4.30;99.90
12386;DHT22;6257;57.634;18.310;2022-12-29T04:15:14;4.30;99.90
12386;DHT22;6257;57.634;18.310;2022-12-29T04:17:42;4.30;99.90
12386;DHT22;6257;57.634;18.310;2022-12-29T04:20:09;4.30;99.90
12386;DHT22;6257;57.634;18.310;2022-12-29T04:22:59;4.30;99.90
12386;DHT22;6257;57.634;18.310;2022-12-29T04:25:27;4.30;99.90
12386;DHT22;6257;57.634;18.310;2022-12-29T04:27:54;4.40;99.90
12386;DHT22;6257;57.634;18.310;2022-12-29T04:30:22;4.30;99.90
12386;DHT22;6257;57.634;18.310;2022-12-29T04:32:49;4.40;99.90
12386;DHT22;6257;57.634;18.310;2022-12-29T04:35:16;4.40;99.90
12386;DHT22;6257;57.634;18.310;2022-12-29T04:37:43;4.40;99.90
12386;DHT22;6257;57.634;18.310;2022-12-29T04:40:11;4.40;99.90
12386;DHT22;6257;57.634;18.310;2022-12-29T04:42:40;4.40;99.90
12386;DHT22;6257;57.634;18.310;2022-12-29T04:45:08;4.40;99.90
12386;DHT22;6257;57.634;18.310;2022-12-29T04:47:35;4.40;99.90
12386;DHT22;6257;57.634;18.310;2022-12-29T04:50:03;4.40;99.90
12386;DHT22;6257;57.634;18.310;2022-12-29T04:52:30;4.40;99.90
12386;DHT22;6257;57.634;18.310;2022-12-29T04:54:57;4.40;99.90
12386;DHT22;6257;57.634;18.310;2022-12-29T04:57:24;4.40;99.90
12386;DHT22;6257;57.634;18.310;2022-12-29T04:59:53;4.40;99.90
12386;DHT22;6257;57.634;18.310;2022-12-29T05:02:20;4.40;99.90
12386;DHT22;6257;57.634;18.310;2022-12-29T05:04:47;4.50;99.90
12386;DHT22;6257;57.634;18.310;2022-12-29T05:07:14;4.50;99.90
12386;DHT22;6257;57.634;18.310;2022-12-29T05:09:41;4.50;99.90
12386;DHT22;6257;57.634;18.310;2022-12-29T05:12:08;4.50;99.90
12386;DHT22;6257;57.634;18.310;2022-12-29T05:14:35;4.50;99.90
12386;DHT22;6257;57.634;18.310;2022-12-29T05:17:04;4.50;99.90
12386;DHT22;6257;57.634;18.310;2022-12-29T05:19:31;4.60;99.90
12386;DHT22;6257;57.634;18.310;2022-12-29T05:21:58;4.60;99.90
12386;DHT22;6257;57.634;18.310;2022-12-29T05:24:26;4.60;99.90
12386;DHT22;6257;57.634;18.310;2022-12-29T05:26:53;4.60;99.90
12386;DHT22;6257;57.634;18.310;2022-12-29T05:29:20;4.60;99.90
12386;DHT22;6257;57.634;18.310;2022-12-29T05:31:47;4.60;99.90
12386;DHT22;6257;57.634;18.310;2022-12-29T05:34:16;4.60;99.90
12386;DHT22;6257;57.634;18.310;2022-12-29T05:36:43;4.70;99.90
12386;DHT22;6257;57.634;18.310;2022-12-29T05:39:10;4.70;99.90
12386;DHT22;6257;57.634;18.310;2022-12-29T05:41:37;4.70;99.90
12386;DHT22;6257;57.634;18.310;2022-12-29T05:44:04;4.70;99.90
12386;DHT22;6257;57.634;18.310;2022-12-29T05:46:32;4.70;99.90
12386;DHT22;6257;57.634;18.310;2022-12-29T05:48:59;4.70;99.90
12386;DHT22;6257;57.634;18.310;2022-12-29T05:51:28;4.80;99.90
12386;DHT22;6257;57.634;18.310;2022-12-29T05:53:55;4.80;99.90
12386;DHT22;6257;57.634;18.310;2022-12-29T05:56:23;4.80;99.90
12386;DHT22;6257;57.634;18.310;2022-12-29T05:58:50;4.80;99.90
12386;DHT22;6257;57.634;18.310;2022-12-29T06:01:17;4.90;99.90
12386;DHT22;6257;57.634;18.310;2022-12-29T06:03:44;4.90;99.90
12386;DHT22;6257;57.634;18.310;2022-12-29T06:06:12;4.90;99.90
12386;DHT22;6257;57.634;18.310;2022-12-29T06:08:40;4.90;99.90
12386;DHT22;6257;57.634;18.310;2022-12-29T06:11:07;5.00;99.90
12386;DHT22;6257;57.634;18.310;2022-12-29T06:13:34;5.00;99.90
12386;DHT22;6257;57.634;18.310;2022-12-29T06:16:01;5.00;99.90
12386;DHT22;6257;57.634;18.310;2022-12-29T06:18:29;5.00;99.90
12386;DHT22;6257;57.634;18.310;2022-12-29T06:20:59;5.00;99.90
12386;DHT22;6257;57.634;18.310;2022-12-29T06:23:27;5.00;99.90
12386;DHT22;6257;57.634;18.310;2022-12-29T06:25:55;5.10;99.90
12386;DHT22;6257;57.634;18.310;2022-12-29T06:28:23;5.10;99.90
12386;DHT22;6257;57.634;18.310;2022-12-29T06:30:50;5.10;99.90
12386;DHT22;6257;57.634;18.310;2022-12-29T06:33:17;5.10;99.90
12386;DHT22;6257;57.634;18.310;2022-12-29T06:35:45;5.10;99.90
12386;DHT22;6257;57.634;18.310;2022-12-29T06:38:12;5.10;99.90
12386;DHT22;6257;57.634;18.310;2022-12-29T06:40:39;5.10;99.90
12386;DHT22;6257;57.634;18.310;2022-12-29T06:43:10;5.10;99.90
12386;DHT22;6257;57.634;18.310;2022-12-29T06:45:38;5.10;99.90
12386;DHT22;6257;57.634;18.310;2022-12-29T06:48:05;5.10;99.90
12386;DHT22;6257;57.634;18.310;2022-12-29T06:50:33;5.10;99.90
12386;DHT22;6257;57.634;18.310;2022-12-29T06:53:00;5.10;99.90
12386;DHT22;6257;57.634;18.310;2022-12-29T06:55:27;5.20;99.90
12386;DHT22;6257;57.634;18.310;2022-12-29T06:57:55;5.20;99.90
12386;DHT22;6257;57.634;18.310;2022-12-29T07:00:24;5.20;99.90
12386;DHT22;6257;57.634;18.310;2022-12-29T07:02:51;5.30;99.90
12386;DHT22;6257;57.634;18.310;2022-12-29T07:05:18;5.30;99.90
12386;DHT22;6257;57.634;18.310;2022-12-29T07:07:46;5.40;99.90
12386;DHT22;6257;57.634;18.310;2022-12-29T07:10:13;5.40;99.90
12386;DHT22;6257;57.634;18.310;2022-12-29T07:12:40;5.40;99.90
12386;DHT22;6257;57.634;18.310;2022-12-29T07:15:08;5.50;99.90
12386;DHT22;6257;57.634;18.310;2022-12-29T07:17:36;5.50;99.90
12386;DHT22;6257;57.634;18.310;2022-12-29T07:20:04;5.50;99.90
12386;DHT22;6257;57.634;18.310;2022-12-29T07:22:31;5.60;99.90
12386;DHT22;6257;57.634;18.310;2022-12-29T07:24:59;5.60;99.90
12386;DHT22;6257;57.634;18.310;2022-12-29T07:27:26;5.60;99.90
12386;DHT22;6257;57.634;18.310;2022-12-29T07:29:53;5.70;99.90
12386;DHT22;6257;57.634;18.310;2022-12-29T07:32:20;5.70;99.90
12386;DHT22;6257;57.634;18.310;2022-12-29T07:34:49;5.70;99.90
12386;DHT22;6257;57.634;18.310;2022-12-29T07:37:16;5.70;99.90
12386;DHT22;6257;57.634;18.310;2022-12-29T07:39:44;5.70;99.90
12386;DHT22;6257;57.634;18.310;2022-12-29T07:42:11;5.70;99.90
12386;DHT22;6257;57.634;18.310;2022-12-29T07:44:38;5.70;99.90
12386;DHT22;6257;57.634;18.310;2022-12-29T07:47:05;5.70;99.90
12386;DHT22;6257;57.634;18.310;2022-12-29T07:49:32;5.70;99.90
12386;DHT22;6257;57.634;18.310;2022-12-29T07:52:01;5.80;99.90
12386;DHT22;6257;57.634;18.310;2022-12-29T07:54:28;5.80;99.90
12386;DHT22;6257;57.634;18.310;2022-12-29T07:56:55;5.80;99.90
12386;DHT22;6257;57.634;18.310;2022-12-29T07:59:23;5.80;99.90
12386;DHT22;6257;57.634;18.310;2022-12-29T08:01:50;5.80;99.90
12386;DHT22;6257;57.634;18.310;2022-12-29T08:04:17;5.80;99.90
12386;DHT22;6257;57.634;18.310;2022-12-29T08:06:44;5.80;99.90
12386;DHT22;6257;57.634;18.310;2022-12-29T08:09:13;5.80;99.90
12386;DHT22;6257;57.634;18.310;2022-12-29T08:11:40;5.80;99.90
12386;DHT22;6257;57.634;18.310;2022-12-29T08:14:08;5.80;99.90
12386;DHT22;6257;57.634;18.310;2022-12-29T08:16:35;5.80;99.90
12386;DHT22;6257;57.634;18.310;2022-12-29T08:19:03;5.90;99.90
12386;DHT22;6257;57.634;18.310;2022-12-29T08:21:30;5.80;99.90
12386;DHT22;6257;57.634;18.310;2022-12-29T08:23:58;5.80;99.90
12386;DHT22;6257;57.634;18.310;2022-12-29T08:26:26;5.90;99.90
12386;DHT22;6257;57.634;18.310;2022-12-29T08:28:54;5.90;99.90
12386;DHT22;6257;57.634;18.310;2022-12-29T08:31:22;5.90;99.90
12386;DHT22;6257;57.634;18.310;2022-12-29T08:33:49;5.90;99.90
12386;DHT22;6257;57.634;18.310;2022-12-29T08:36:16;5.90;99.90
12386;DHT22;6257;57.634;18.310;2022-12-29T08:38:44;5.90;99.90
12386;DHT22;6257;57.634;18.310;2022-12-29T08:41:11;5.90;99.90
12386;DHT22;6257;57.634;18.310;2022-12-29T08:43:39;5.90;99.90
12386;DHT22;6257;57.634;18.310;2022-12-29T08:46:06;6.90;99.90
12386;DHT22;6257;57.634;18.310;2022-12-29T08:48:33;5.90;99.90
12386;DHT22;6257;57.634;18.310;2022-12-29T08:51:00;5.90;99.90
12386;DHT22;6257;57.634;18.310;2022-12-29T08:53:27;5.90;99.90
12386;DHT22;6257;57.634;18.310;2022-12-29T08:55:56;5.90;99.90
12386;DHT22;6257;57.634;18.310;2022-12-29T08:58:24;5.90;99.90
12386;DHT22;6257;57.634;18.310;2022-12-29T09:00:54;5.90;99.90
12386;DHT22;6257;57.634;18.310;2022-12-29T09:03:22;5.90;99.90
12386;DHT22;6257;57.634;18.310;2022-12-29T09:05:50;5.90;99.90
12386;DHT22;6257;57.634;18.310;2022-12-29T09:08:17;5.90;99.90
12386;DHT22;6257;57.634;18.310;2022-12-29T09:10:45;5.90;99.90
12386;DHT22;6257;57.634;18.310;2022-12-29T09:13:13;5.90;99.90
12386;DHT22;6257;57.634;18.310;2022-12-29T09:15:41;5.90;99.90
12386;DHT22;6257;57.634;18.310;2022-12-29T09:18:10;5.90;99.90
12386;DHT22;6257;57.634;18.310;2022-12-29T09:20:37;5.90;99.90
12386;DHT22;6257;57.634;18.310;2022-12-29T09:23:05;5.90;99.90
12386;DHT22;6257;57.634;18.310;2022-12-29T09:25:33;5.90;99.90
12386;DHT22;6257;57.634;18.310;2022-12-29T09:28:00;5.90;99.90
12386;DHT22;6257;57.634;18.310;2022-12-29T09:30:33;5.90;99.90
12386;DHT22;6257;57.634;18.310;2022-12-29T09:33:00;6.00;99.90
12386;DHT22;6257;57.634;18.310;2022-12-29T09:35:28;6.00;99.90
12386;DHT22;6257;57.634;18.310;2022-12-29T09:37:56;6.00;99.90
12386;DHT22;6257;57.634;18.310;2022-12-29T09:40:28;6.00;99.90
12386;DHT22;6257;57.634;18.310;2022-12-29T09:43:05;6.00;99.90
12386;DHT22;6257;57.634;18.310;2022-12-29T09:45:41;6.00;99.90
12386;DHT22;6257;57.634;18.310;2022-12-29T09:48:15;6.00;99.90
12386;DHT22;6257;57.634;18.310;2022-12-29T09:50:50;6.00;99.90
12386;DHT22;6257;57.634;18.310;2022-12-29T09:53:23;6.00;99.90
12386;DHT22;6257;57.634;18.310;2022-12-29T09:55:55;6.00;99.90
12386;DHT22;6257;57.634;18.310;2022-12-29T09:58:28;6.00;99.90
12386;DHT22;6257;57.634;18.310;2022-12-29T10:01:01;6.00;99.90
12386;DHT22;6257;57.634;18.310;2022-12-29T10:03:39;6.10;99.90
12386;DHT22;6257;57.634;18.310;2022-12-29T10:06:12;6.00;99.90
12386;DHT22;6257;57.634;18.310;2022-12-29T10:08:44;6.00;99.90
12386;DHT22;6257;57.634;18.310;2022-12-29T10:11:23;6.00;99.90
12386;DHT22;6257;57.634;18.310;2022-12-29T10:14:08;6.10;99.90
12386;DHT22;6257;57.634;18.310;2022-12-29T10:16:43;6.10;99.90
12386;DHT22;6257;57.634;18.310;2022-12-29T10:19:27;6.10;99.90
12386;DHT22;6257;57.634;18.310;2022-12-29T10:22:08;6.10;99.90
12386;DHT22;6257;57.634;18.310;2022-12-29T10:24:39;6.10;99.90
12386;DHT22;6257;57.634;18.310;2022-12-29T10:27:10;6.10;99.90
12386;DHT22;6257;57.634;18.310;2022-12-29T10:29:42;6.20;99.90
12386;DHT22;6257;57.634;18.310;2022-12-29T10:32:21;6.20;99.90
12386;DHT22;6257;57.634;18.310;2022-12-29T10:34:53;6.20;99.90
12386;DHT22;6257;57.634;18.310;2022-12-29T10:37:29;6.20;99.90
12386;DHT22;6257;57.634;18.310;2022-12-29T10:39:58;6.20;99.90
12386;DHT22;6257;57.634;18.310;2022-12-29T10:42:27;6.20;99.90
12386;DHT22;6257;57.634;18.310;2022-12-29T10:44:56;6.20;99.90
12386;DHT22;6257;57.634;18.310;2022-12-29T10:47:26;6.20;99.90
12386;DHT22;6257;57.634;18.310;2022-12-29T10:49:55;6.20;99.90
12386;DHT22;6257;57.634;18.310;2022-12-29T10:52:27;6.20;99.90
12386;DHT22;6257;57.634;18.310;2022-12-29T10:54:57;6.20;99.90
12386;DHT22;6257;57.634;18.310;2022-12-29T10:57:28;6.20;99.90
12386;DHT22;6257;57.634;18.310;2022-12-29T10:59:57;6.20;99.90
12386;DHT22;6257;57.634;18.310;2022-12-29T11:02:47;6.20;99.90
12386;DHT22;6257;57.634;18.310;2022-12-29T11:05:23;6.20;99.90
12386;DHT22;6257;57.634;18.310;2022-12-29T11:07:57;6.20;99.90
12386;DHT22;6257;57.634;18.310;2022-12-29T11:10:30;6.30;99.90
12386;DHT22;6257;57.634;18.310;2022-12-29T11:13:02;6.20;99.90
12386;DHT22;6257;57.634;18.310;2022-12-29T11:15:39;6.30;99.90
12386;DHT22;6257;57.634;18.310;2022-12-29T11:18:18;6.20;99.90
12386;DHT22;6257;57.634;18.310;2022-12-29T11:20:47;6.30;99.90
12386;DHT22;6257;57.634;18.310;2022-12-29T11:26:20;6.30;99.90
12386;DHT22;6257;57.634;18.310;2022-12-29T11:29:08;6.30;99.90
12386;DHT22;6257;57.634;18.310;2022-12-29T11:31:40;6.30;99.90
12386;DHT22;6257;57.634;18.310;2022-12-29T11:34:08;6.40;99.90
12386;DHT22;6257;57.634;18.310;2022-12-29T11:36:36;6.40;99.90
12386;DHT22;6257;57.634;18.310;2022-12-29T11:39:03;6.40;99.90
12386;DHT22;6257;57.634;18.310;2022-12-29T11:41:32;6.30;99.90
12386;DHT22;6257;57.634;18.310;2022-12-29T11:44:03;6.40;99.90
12386;DHT22;6257;57.634;18.310;2022-12-29T11:46:34;6.40;99.90
12386;DHT22;6257;57.634;18.310;2022-12-29T11:49:03;6.40;99.90
12386;DHT22;6257;57.634;18.310;2022-12-29T11:51:36;6.40;99.90
12386;DHT22;6257;57.634;18.310;2022-12-29T11:54:05;6.40;99.90
12386;DHT22;6257;57.634;18.310;2022-12-29T11:56:36;6.40;99.90
12386;DHT22;6257;57.634;18.310;2022-12-29T11:59:40;6.40;99.90
12386;DHT22;6257;57.634;18.310;2022-12-29T12:05:10;6.40;99.90
12386;DHT22;6257;57.634;18.310;2022-12-29T12:07:41;6.50;99.90
12386;DHT22;6257;57.634;18.310;2022-12-29T12:10:18;6.50;99.90
12386;DHT22;6257;57.634;18.310;2022-12-29T12:12:53;6.40;99.90
12386;DHT22;6257;57.634;18.310;2022-12-29T12:15:25;6.40;99.90
12386;DHT22;6257;57.634;18.310;2022-12-29T12:18:00;6.40;99.90
12386;DHT22;6257;57.634;18.310;2022-12-29T12:20:38;6.50;99.90
12386;DHT22;6257;57.634;18.310;2022-12-29T12:23:15;6.40;99.90
12386;DHT22;6257;57.634;18.310;2022-12-29T12:25:53;6.50;99.90
12386;DHT22;6257;57.634;18.310;2022-12-29T12:28:28;6.50;99.90
12386;DHT22;6257;57.634;18.310;2022-12-29T12:30:58;6.50;99.90
12386;DHT22;6257;57.634;18.310;2022-12-29T12:33:28;6.50;99.90
12386;DHT22;6257;57.634;18.310;2022-12-29T12:36:20;6.50;99.90
12386;DHT22;6257;57.634;18.310;2022-12-29T12:38:54;6.50;99.90
12386;DHT22;6257;57.634;18.310;2022-12-29T12:41:31;6.40;99.90
12386;DHT22;6257;57.634;18.310;2022-12-29T12:44:09;6.50;99.90
12386;DHT22;6257;57.634;18.310;2022-12-29T12:47:03;6.50;99.90
12386;DHT22;6257;57.634;18.310;2022-12-29T12:49:55;6.40;99.90
12386;DHT22;6257;57.634;18.310;2022-12-29T12:52:33;6.40;99.90
12386;DHT22;6257;57.634;18.310;2022-12-29T12:55:18;6.40;99.90
12386;DHT22;6257;57.634;18.310;2022-12-29T12:57:55;6.40;99.90
12386;DHT22;6257;57.634;18.310;2022-12-29T13:00:26;6.40;99.90
12386;DHT22;6257;57.634;18.310;2022-12-29T13:03:04;6.50;99.90
12386;DHT22;6257;57.634;18.310;2022-12-29T13:05:47;6.50;99.90
12386;DHT22;6257;57.634;18.310;2022-12-29T13:11:27;6.50;99.90
12386;DHT22;6257;57.634;18.310;2022-12-29T13:14:05;6.50;99.90
12386;DHT22;6257;57.634;18.310;2022-12-29T13:16:41;6.50;99.90
12386;DHT22;6257;57.634;18.310;2022-12-29T13:19:19;6.50;99.90
12386;DHT22;6257;57.634;18.310;2022-12-29T13:22:00;6.50;99.90
12386;DHT22;6257;57.634;18.310;2022-12-29T13:24:32;6.50;99.90
12386;DHT22;6257;57.634;18.310;2022-12-29T13:27:06;6.50;99.90
12386;DHT22;6257;57.634;18.310;2022-12-29T13:29:42;6.50;99.90
12386;DHT22;6257;57.634;18.310;2022-12-29T13:32:21;6.50;99.90
12386;DHT22;6257;57.634;18.310;2022-12-29T13:34:59;6.50;99.90
12386;DHT22;6257;57.634;18.310;2022-12-29T13:37:34;6.50;99.90
12386;DHT22;6257;57.634;18.310;2022-12-29T13:40:14;6.50;99.90
12386;DHT22;6257;57.634;18.310;2022-12-29T13:42:43;6.50;99.90
12386;DHT22;6257;57.634;18.310;2022-12-29T13:45:14;6.50;99.90
12386;DHT22;6257;57.634;18.310;2022-12-29T13:47:48;6.50;99.90
12386;DHT22;6257;57.634;18.310;2022-12-29T13:50:19;6.50;99.90
12386;DHT22;6257;57.634;18.310;2022-12-29T13:52:54;6.40;99.90
12386;DHT22;6257;57.634;18.310;2022-12-29T13:55:27;6.40;99.90
12386;DHT22;6257;57.634;18.310;2022-12-29T13:58:02;6.50;99.90
12386;DHT22;6257;57.634;18.310;2022-12-29T14:00:38;6.50;99.90
12386;DHT22;6257;57.634;18.310;2022-12-29T14:03:43;6.40;99.90
12386;DHT22;6257;57.634;18.310;2022-12-29T14:06:23;6.50;99.90
12386;DHT22;6257;57.634;18.310;2022-12-29T14:08:53;6.50;99.90
12386;DHT22;6257;57.634;18.310;2022-12-29T14:11:23;6.50;99.90
12386;DHT22;6257;57.634;18.310;2022-12-29T14:14:11;6.50;99.90
12386;DHT22;6257;57.634;18.310;2022-12-29T14:16:39;6.50;99.90
12386;DHT22;6257;57.634;18.310;2022-12-29T14:19:16;6.40;99.90
12386;DHT22;6257;57.634;18.310;2022-12-29T14:21:51;6.40;99.90
12386;DHT22;6257;57.634;18.310;2022-12-29T14:24:39;6.40;99.90
12386;DHT22;6257;57.634;18.310;2022-12-29T14:30:48;6.50;99.90
12386;DHT22;6257;57.634;18.310;2022-12-29T14:33:17;6.50;99.90
12386;DHT22;6257;57.634;18.310;2022-12-29T14:35:47;6.50;99.90
12386;DHT22;6257;57.634;18.310;2022-12-29T14:38:26;6.50;99.90
12386;DHT22;6257;57.634;18.310;2022-12-29T14:44:17;6.50;99.90
12386;DHT22;6257;57.634;18.310;2022-12-29T14:46:48;6.50;99.90
12386;DHT22;6257;57.634;18.310;2022-12-29T14:49:19;6.50;99.90
12386;DHT22;6257;57.634;18.310;2022-12-29T14:51:49;6.60;99.90
12386;DHT22;6257;57.634;18.310;2022-12-29T14:54:43;6.60;99.90
12386;DHT22;6257;57.634;18.310;2022-12-29T14:57:18;6.60;99.90
12386;DHT22;6257;57.634;18.310;2022-12-29T14:59:47;6.60;99.90
12386;DHT22;6257;57.634;18.310;2022-12-29T15:02:17;6.60;99.90
12386;DHT22;6257;57.634;18.310;2022-12-29T15:04:46;6.60;99.90
12386;DHT22;6257;57.634;18.310;2022-12-29T15:07:15;6.60;99.90
12386;DHT22;6257;57.634;18.310;2022-12-29T15:09:46;6.60;99.90
12386;DHT22;6257;57.634;18.310;2022-12-29T15:12:21;6.60;99.90
12386;DHT22;6257;57.634;18.310;2022-12-29T15:14:50;6.60;99.90
12386;DHT22;6257;57.634;18.310;2022-12-29T15:17:26;6.60;99.90
12386;DHT22;6257;57.634;18.310;2022-12-29T15:19:54;6.60;99.90
12386;DHT22;6257;57.634;18.310;2022-12-29T15:22:23;6.60;99.90
12386;DHT22;6257;57.634;18.310;2022-12-29T15:24:52;6.60;99.90
12386;DHT22;6257;57.634;18.310;2022-12-29T15:27:21;6.60;99.90
12386;DHT22;6257;57.634;18.310;2022-12-29T15:29:56;6.60;99.90
12386;DHT22;6257;57.634;18.310;2022-12-29T15:32:24;6.60;99.90
12386;DHT22;6257;57.634;18.310;2022-12-29T15:34:53;6.60;99.90
12386;DHT22;6257;57.634;18.310;2022-12-29T15:37:24;6.50;99.90
12386;DHT22;6257;57.634;18.310;2022-12-29T15:39:52;6.60;99.90
12386;DHT22;6257;57.634;18.310;2022-12-29T15:45:12;6.60;99.90
12386;DHT22;6257;57.634;18.310;2022-12-29T15:47:42;6.60;99.90
12386;DHT22;6257;57.634;18.310;2022-12-29T15:50:18;6.60;99.90
12386;DHT22;6257;57.634;18.310;2022-12-29T15:52:48;6.50;99.90
12386;DHT22;6257;57.634;18.310;2022-12-29T15:55:21;6.60;99.90
12386;DHT22;6257;57.634;18.310;2022-12-29T15:57:56;6.60;99.90
12386;DHT22;6257;57.634;18.310;2022-12-29T16:00:25;6.50;99.90
12386;DHT22;6257;57.634;18.310;2022-12-29T16:02:54;6.50;99.90
12386;DHT22;6257;57.634;18.310;2022-12-29T16:05:21;6.60;99.90
12386;DHT22;6257;57.634;18.310;2022-12-29T16:07:55;6.60;99.90
12386;DHT22;6257;57.634;18.310;2022-12-29T16:10:26;6.60;99.90
12386;DHT22;6257;57.634;18.310;2022-12-29T16:13:02;6.60;99.90
12386;DHT22;6257;57.634;18.310;2022-12-29T16:15:29;6.60;99.90
12386;DHT22;6257;57.634;18.310;2022-12-29T16:17:57;6.60;99.90
12386;DHT22;6257;57.634;18.310;2022-12-29T16:20:31;6.60;99.90
12386;DHT22;6257;57.634;18.310;2022-12-29T16:23:01;6.60;99.90
12386;DHT22;6257;57.634;18.310;2022-12-29T16:25:29;6.70;99.90
12386;DHT22;6257;57.634;18.310;2022-12-29T16:27:58;6.60;99.90
12386;DHT22;6257;57.634;18.310;2022-12-29T16:30:27;7.30;99.90
12386;DHT22;6257;57.634;18.310;2022-12-29T16:32:56;6.70;99.90
12386;DHT22;6257;57.634;18.310;2022-12-29T16:35:25;6.60;99.90
12386;DHT22;6257;57.634;18.310;2022-12-29T16:38:12;6.50;99.90